<?xml version="1.0" encoding="UTF-8" standalone="no" ?>
<gpx xmlns="http://www.topografix.com/GPX/1/1" xmlns:xsi="http://www.w3.org/2001/XMLSchema-instance" xsi:schemaLocation="http://www.topografix.com/GPX/1/1 http://www.topografix.com/GPX/1/1/gpx.xsd" version="1.1" creator="VisuGPX - https://www.visugpx.com">
  <metadata>
    <name>13690329-Bessat-Oeillon-Pilat</name>
  </metadata>
  <trk>
    <name><![CDATA[13690329-Bessat-Oeillon-Pilat]]></name>
    <trkseg>
      <trkpt lat="45.37401" lon="4.56272">
        <ele>1308</ele>
        <time>2021-09-28T12:34:37Z</time>
      </trkpt>
      <trkpt lat="45.37399" lon="4.56345">
        <ele>1312</ele>
        <time>2021-09-28T12:35:45Z</time>
      </trkpt>
      <trkpt lat="45.37385" lon="4.56507">
        <ele>1318</ele>
        <time>2021-09-28T12:38:18Z</time>
      </trkpt>
      <trkpt lat="45.37397" lon="4.56616">
        <ele>1324</ele>
        <time>2021-09-28T12:40:02Z</time>
      </trkpt>
      <trkpt lat="45.37387" lon="4.56666">
        <ele>1323</ele>
        <time>2021-09-28T12:40:51Z</time>
      </trkpt>
      <trkpt lat="45.37392" lon="4.56739">
        <ele>1321</ele>
        <time>2021-09-28T12:41:59Z</time>
      </trkpt>
      <trkpt lat="45.37427" lon="4.56841">
        <ele>1314</ele>
        <time>2021-09-28T12:43:46Z</time>
      </trkpt>
      <trkpt lat="45.3744" lon="4.56898">
        <ele>1309</ele>
        <time>2021-09-28T12:44:42Z</time>
      </trkpt>
      <trkpt lat="45.37485" lon="4.57018">
        <ele>1308</ele>
        <time>2021-09-28T12:46:50Z</time>
      </trkpt>
      <trkpt lat="45.37497" lon="4.5728">
        <ele>1293</ele>
        <time>2021-09-28T12:50:56Z</time>
      </trkpt>
      <trkpt lat="45.37597" lon="4.57373">
        <ele>1295</ele>
        <time>2021-09-28T12:53:35Z</time>
      </trkpt>
      <trkpt lat="45.37648" lon="4.57396">
        <ele>1298</ele>
        <time>2021-09-28T12:54:46Z</time>
      </trkpt>
      <trkpt lat="45.37682" lon="4.57433">
        <ele>1296</ele>
        <time>2021-09-28T12:55:44Z</time>
      </trkpt>
      <trkpt lat="45.3769" lon="4.57466">
        <ele>1293</ele>
        <time>2021-09-28T12:56:16Z</time>
      </trkpt>
      <trkpt lat="45.3776" lon="4.57517">
        <ele>1299</ele>
        <time>2021-09-28T12:58:01Z</time>
      </trkpt>
      <trkpt lat="45.37772" lon="4.57532">
        <ele>1302</ele>
        <time>2021-09-28T12:58:23Z</time>
      </trkpt>
      <trkpt lat="45.3772" lon="4.57609">
        <ele>1292</ele>
        <time>2021-09-28T13:00:03Z</time>
      </trkpt>
      <trkpt lat="45.37558" lon="4.57841">
        <ele>1294</ele>
        <time>2021-09-28T13:05:09Z</time>
      </trkpt>
      <trkpt lat="45.37513" lon="4.57891">
        <ele>1290</ele>
        <time>2021-09-28T13:06:25Z</time>
      </trkpt>
      <trkpt lat="45.37483" lon="4.57929">
        <ele>1288</ele>
        <time>2021-09-28T13:07:19Z</time>
      </trkpt>
      <trkpt lat="45.3748" lon="4.57961">
        <ele>1289</ele>
        <time>2021-09-28T13:07:49Z</time>
      </trkpt>
      <trkpt lat="45.37437" lon="4.58001">
        <ele>1285</ele>
        <time>2021-09-28T13:08:58Z</time>
      </trkpt>
      <trkpt lat="45.37357" lon="4.58068">
        <ele>1274</ele>
        <time>2021-09-28T13:11:02Z</time>
      </trkpt>
      <trkpt lat="45.37269" lon="4.5822">
        <ele>1250</ele>
        <time>2021-09-28T13:14:06Z</time>
      </trkpt>
      <trkpt lat="45.37018" lon="4.58529">
        <ele>1211</ele>
        <time>2021-09-28T13:21:29Z</time>
      </trkpt>
      <trkpt lat="45.3671" lon="4.58714">
        <ele>1211</ele>
        <time>2021-09-28T13:28:55Z</time>
      </trkpt>
      <trkpt lat="45.36657" lon="4.58763">
        <ele>1209</ele>
        <time>2021-09-28T13:30:20Z</time>
      </trkpt>
      <trkpt lat="45.36635" lon="4.58821">
        <ele>1205</ele>
        <time>2021-09-28T13:31:21Z</time>
      </trkpt>
      <trkpt lat="45.3661" lon="4.58896">
        <ele>1196</ele>
        <time>2021-09-28T13:32:39Z</time>
      </trkpt>
      <trkpt lat="45.36635" lon="4.59035">
        <ele>1183</ele>
        <time>2021-09-28T13:34:54Z</time>
      </trkpt>
      <trkpt lat="45.36641" lon="4.59107">
        <ele>1174</ele>
        <time>2021-09-28T13:36:02Z</time>
      </trkpt>
      <trkpt lat="45.36674" lon="4.59241">
        <ele>1161</ele>
        <time>2021-09-28T13:38:15Z</time>
      </trkpt>
      <trkpt lat="45.36686" lon="4.59413">
        <ele>1153</ele>
        <time>2021-09-28T13:40:57Z</time>
      </trkpt>
      <trkpt lat="45.36816" lon="4.59422">
        <ele>1152</ele>
        <time>2021-09-28T13:43:51Z</time>
      </trkpt>
      <trkpt lat="45.36909" lon="4.5937">
        <ele>1154</ele>
        <time>2021-09-28T13:46:04Z</time>
      </trkpt>
      <trkpt lat="45.37102" lon="4.59332">
        <ele>1152</ele>
        <time>2021-09-28T13:50:24Z</time>
      </trkpt>
      <trkpt lat="45.37201" lon="4.59366">
        <ele>1145</ele>
        <time>2021-09-28T13:52:40Z</time>
      </trkpt>
      <trkpt lat="45.37225" lon="4.59382">
        <ele>1143</ele>
        <time>2021-09-28T13:53:15Z</time>
      </trkpt>
      <trkpt lat="45.37278" lon="4.59439">
        <ele>1133</ele>
        <time>2021-09-28T13:54:44Z</time>
      </trkpt>
      <trkpt lat="45.37331" lon="4.59469">
        <ele>1134</ele>
        <time>2021-09-28T13:56:00Z</time>
      </trkpt>
      <trkpt lat="45.3739" lon="4.59538">
        <ele>1117</ele>
        <time>2021-09-28T13:57:42Z</time>
      </trkpt>
      <trkpt lat="45.37479" lon="4.59568">
        <ele>1105</ele>
        <time>2021-09-28T13:59:44Z</time>
      </trkpt>
      <trkpt lat="45.37624" lon="4.59602">
        <ele>1090</ele>
        <time>2021-09-28T14:03:00Z</time>
      </trkpt>
      <trkpt lat="45.37591" lon="4.59786">
        <ele>1078</ele>
        <time>2021-09-28T14:05:58Z</time>
      </trkpt>
      <trkpt lat="45.37527" lon="4.59984">
        <ele>1065</ele>
        <time>2021-09-28T14:09:22Z</time>
      </trkpt>
      <trkpt lat="45.375" lon="4.60014">
        <ele>1056</ele>
        <time>2021-09-28T14:10:08Z</time>
      </trkpt>
      <trkpt lat="45.37392" lon="4.60017">
        <ele>1037</ele>
        <time>2021-09-28T14:12:32Z</time>
      </trkpt>
      <trkpt lat="45.37273" lon="4.60052">
        <ele>1021</ele>
        <time>2021-09-28T14:15:14Z</time>
      </trkpt>
      <trkpt lat="45.37257" lon="4.60061">
        <ele>1020</ele>
        <time>2021-09-28T14:15:37Z</time>
      </trkpt>
      <trkpt lat="45.37247" lon="4.60073">
        <ele>1019</ele>
        <time>2021-09-28T14:15:55Z</time>
      </trkpt>
      <trkpt lat="45.37272" lon="4.60084">
        <ele>1021</ele>
        <time>2021-09-28T14:16:30Z</time>
      </trkpt>
      <trkpt lat="45.37314" lon="4.6008">
        <ele>1024</ele>
        <time>2021-09-28T14:17:26Z</time>
      </trkpt>
      <trkpt lat="45.37348" lon="4.60077">
        <ele>1029</ele>
        <time>2021-09-28T14:18:11Z</time>
      </trkpt>
      <trkpt lat="45.37393" lon="4.60074">
        <ele>1036</ele>
        <time>2021-09-28T14:19:11Z</time>
      </trkpt>
      <trkpt lat="45.37466" lon="4.60054">
        <ele>1048</ele>
        <time>2021-09-28T14:20:51Z</time>
      </trkpt>
      <trkpt lat="45.37561" lon="4.60092">
        <ele>1062</ele>
        <time>2021-09-28T14:23:02Z</time>
      </trkpt>
      <trkpt lat="45.37641" lon="4.60106">
        <ele>1078</ele>
        <time>2021-09-28T14:24:50Z</time>
      </trkpt>
      <trkpt lat="45.37722" lon="4.60176">
        <ele>1077</ele>
        <time>2021-09-28T14:26:56Z</time>
      </trkpt>
      <trkpt lat="45.37755" lon="4.602">
        <ele>1078</ele>
        <time>2021-09-28T14:27:46Z</time>
      </trkpt>
      <trkpt lat="45.37808" lon="4.60262">
        <ele>1090</ele>
        <time>2021-09-28T14:29:17Z</time>
      </trkpt>
      <trkpt lat="45.3784" lon="4.60319">
        <ele>1097</ele>
        <time>2021-09-28T14:30:26Z</time>
      </trkpt>
      <trkpt lat="45.37855" lon="4.60393">
        <ele>1091</ele>
        <time>2021-09-28T14:31:38Z</time>
      </trkpt>
      <trkpt lat="45.37895" lon="4.60445">
        <ele>1094</ele>
        <time>2021-09-28T14:32:50Z</time>
      </trkpt>
      <trkpt lat="45.37947" lon="4.60505">
        <ele>1095</ele>
        <time>2021-09-28T14:34:20Z</time>
      </trkpt>
      <trkpt lat="45.38037" lon="4.60555">
        <ele>1100</ele>
        <time>2021-09-28T14:36:28Z</time>
      </trkpt>
      <trkpt lat="45.3808" lon="4.60592">
        <ele>1102</ele>
        <time>2021-09-28T14:37:36Z</time>
      </trkpt>
      <trkpt lat="45.38111" lon="4.60549">
        <ele>1111</ele>
        <time>2021-09-28T14:38:33Z</time>
      </trkpt>
      <trkpt lat="45.38154" lon="4.60496">
        <ele>1120</ele>
        <time>2021-09-28T14:39:49Z</time>
      </trkpt>
      <trkpt lat="45.38199" lon="4.60417">
        <ele>1135</ele>
        <time>2021-09-28T14:41:25Z</time>
      </trkpt>
      <trkpt lat="45.38164" lon="4.60401">
        <ele>1133</ele>
        <time>2021-09-28T14:42:14Z</time>
      </trkpt>
      <trkpt lat="45.3811" lon="4.60397">
        <ele>1133</ele>
        <time>2021-09-28T14:43:26Z</time>
      </trkpt>
      <trkpt lat="45.38052" lon="4.60377">
        <ele>1135</ele>
        <time>2021-09-28T14:44:45Z</time>
      </trkpt>
      <trkpt lat="45.38" lon="4.60319">
        <ele>1142</ele>
        <time>2021-09-28T14:46:14Z</time>
      </trkpt>
      <trkpt lat="45.37952" lon="4.6016">
        <ele>1140</ele>
        <time>2021-09-28T14:48:56Z</time>
      </trkpt>
      <trkpt lat="45.38079" lon="4.59962">
        <ele>1178</ele>
        <time>2021-09-28T14:53:07Z</time>
      </trkpt>
      <trkpt lat="45.38103" lon="4.59872">
        <ele>1189</ele>
        <time>2021-09-28T14:54:37Z</time>
      </trkpt>
      <trkpt lat="45.38098" lon="4.59825">
        <ele>1193</ele>
        <time>2021-09-28T14:55:22Z</time>
      </trkpt>
      <trkpt lat="45.38037" lon="4.59761">
        <ele>1195</ele>
        <time>2021-09-28T14:57:03Z</time>
      </trkpt>
      <trkpt lat="45.38071" lon="4.59578">
        <ele>1211</ele>
        <time>2021-09-28T15:00:00Z</time>
      </trkpt>
      <trkpt lat="45.38153" lon="4.59364">
        <ele>1248</ele>
        <time>2021-09-28T15:03:49Z</time>
      </trkpt>
      <trkpt lat="45.38175" lon="4.5922">
        <ele>1261</ele>
        <time>2021-09-28T15:06:07Z</time>
      </trkpt>
      <trkpt lat="45.38326" lon="4.58932">
        <ele>1332</ele>
        <time>2021-09-28T15:11:44Z</time>
      </trkpt>
      <trkpt lat="45.38344" lon="4.58795">
        <ele>1345</ele>
        <time>2021-09-28T15:13:55Z</time>
      </trkpt>
      <trkpt lat="45.38326" lon="4.58705">
        <ele>1354</ele>
        <time>2021-09-28T15:15:22Z</time>
      </trkpt>
      <trkpt lat="45.38407" lon="4.58731">
        <ele>1362</ele>
        <time>2021-09-28T15:17:13Z</time>
      </trkpt>
      <trkpt lat="45.38441" lon="4.58701">
        <ele>1364</ele>
        <time>2021-09-28T15:18:06Z</time>
      </trkpt>
      <trkpt lat="45.38353" lon="4.58602">
        <ele>1371</ele>
        <time>2021-09-28T15:20:36Z</time>
      </trkpt>
      <trkpt lat="45.38275" lon="4.58589">
        <ele>1373</ele>
        <time>2021-09-28T15:22:21Z</time>
      </trkpt>
      <trkpt lat="45.38251" lon="4.58512">
        <ele>1382</ele>
        <time>2021-09-28T15:23:40Z</time>
      </trkpt>
      <trkpt lat="45.38208" lon="4.58512">
        <ele>1381</ele>
        <time>2021-09-28T15:24:37Z</time>
      </trkpt>
      <trkpt lat="45.38184" lon="4.58469">
        <ele>1386</ele>
        <time>2021-09-28T15:25:29Z</time>
      </trkpt>
      <trkpt lat="45.38263" lon="4.58241">
        <ele>1408</ele>
        <time>2021-09-28T15:29:27Z</time>
      </trkpt>
      <trkpt lat="45.38284" lon="4.58023">
        <ele>1419</ele>
        <time>2021-09-28T15:32:53Z</time>
      </trkpt>
      <trkpt lat="45.38314" lon="4.57963">
        <ele>1415</ele>
        <time>2021-09-28T15:34:02Z</time>
      </trkpt>
      <trkpt lat="45.38317" lon="4.57947">
        <ele>1414</ele>
        <time>2021-09-28T15:34:18Z</time>
      </trkpt>
      <trkpt lat="45.38293" lon="4.57898">
        <ele>1412</ele>
        <time>2021-09-28T15:35:14Z</time>
      </trkpt>
      <trkpt lat="45.38299" lon="4.57692">
        <ele>1398</ele>
        <time>2021-09-28T15:38:27Z</time>
      </trkpt>
      <trkpt lat="45.38258" lon="4.57518">
        <ele>1402</ele>
        <time>2021-09-28T15:41:19Z</time>
      </trkpt>
      <trkpt lat="45.38266" lon="4.57405">
        <ele>1410</ele>
        <time>2021-09-28T15:43:05Z</time>
      </trkpt>
      <trkpt lat="45.38242" lon="4.57254">
        <ele>1421</ele>
        <time>2021-09-28T15:45:31Z</time>
      </trkpt>
      <trkpt lat="45.38302" lon="4.57409">
        <ele>1407</ele>
        <time>2021-09-28T15:48:16Z</time>
      </trkpt>
      <trkpt lat="45.38341" lon="4.5751">
        <ele>1400</ele>
        <time>2021-09-28T15:50:05Z</time>
      </trkpt>
      <trkpt lat="45.38416" lon="4.57606">
        <ele>1392</ele>
        <time>2021-09-28T15:52:19Z</time>
      </trkpt>
      <trkpt lat="45.38655" lon="4.57551">
        <ele>1355</ele>
        <time>2021-09-28T15:57:42Z</time>
      </trkpt>
      <trkpt lat="45.38757" lon="4.5748">
        <ele>1335</ele>
        <time>2021-09-28T16:00:14Z</time>
      </trkpt>
      <trkpt lat="45.38968" lon="4.574">
        <ele>1308</ele>
        <time>2021-09-28T16:05:05Z</time>
      </trkpt>
      <trkpt lat="45.39116" lon="4.57375">
        <ele>1309</ele>
        <time>2021-09-28T16:08:24Z</time>
      </trkpt>
      <trkpt lat="45.3914" lon="4.57456">
        <ele>1317</ele>
        <time>2021-09-28T16:09:46Z</time>
      </trkpt>
      <trkpt lat="45.39135" lon="4.57469">
        <ele>1318</ele>
        <time>2021-09-28T16:10:00Z</time>
      </trkpt>
      <trkpt lat="45.39143" lon="4.57542">
        <ele>1325</ele>
        <time>2021-09-28T16:11:09Z</time>
      </trkpt>
      <trkpt lat="45.39203" lon="4.57757">
        <ele>1332</ele>
        <time>2021-09-28T16:14:46Z</time>
      </trkpt>
      <trkpt lat="45.392" lon="4.57782">
        <ele>1333</ele>
        <time>2021-09-28T16:15:10Z</time>
      </trkpt>
      <trkpt lat="45.39242" lon="4.57892">
        <ele>1327</ele>
        <time>2021-09-28T16:17:07Z</time>
      </trkpt>
      <trkpt lat="45.39257" lon="4.58078">
        <ele>1325</ele>
        <time>2021-09-28T16:20:03Z</time>
      </trkpt>
      <trkpt lat="45.39168" lon="4.58265">
        <ele>1316</ele>
        <time>2021-09-28T16:23:35Z</time>
      </trkpt>
      <trkpt lat="45.39031" lon="4.5843">
        <ele>1301</ele>
        <time>2021-09-28T16:27:34Z</time>
      </trkpt>
      <trkpt lat="45.38926" lon="4.58508">
        <ele>1289</ele>
        <time>2021-09-28T16:30:12Z</time>
      </trkpt>
      <trkpt lat="45.38796" lon="4.58533">
        <ele>1284</ele>
        <time>2021-09-28T16:33:07Z</time>
      </trkpt>
      <trkpt lat="45.38724" lon="4.58533">
        <ele>1292</ele>
        <time>2021-09-28T16:34:43Z</time>
      </trkpt>
      <trkpt lat="45.38796" lon="4.58859">
        <ele>1292</ele>
        <time>2021-09-28T16:40:03Z</time>
      </trkpt>
      <trkpt lat="45.38893" lon="4.59181">
        <ele>1305</ele>
        <time>2021-09-28T16:45:32Z</time>
      </trkpt>
      <trkpt lat="45.38982" lon="4.59293">
        <ele>1304</ele>
        <time>2021-09-28T16:48:10Z</time>
      </trkpt>
      <trkpt lat="45.38986" lon="4.59327">
        <ele>1309</ele>
        <time>2021-09-28T16:48:43Z</time>
      </trkpt>
      <trkpt lat="45.38962" lon="4.59542">
        <ele>1320</ele>
        <time>2021-09-28T16:52:07Z</time>
      </trkpt>
      <trkpt lat="45.3895" lon="4.59774">
        <ele>1327</ele>
        <time>2021-09-28T16:55:45Z</time>
      </trkpt>
      <trkpt lat="45.38903" lon="4.59851">
        <ele>1338</ele>
        <time>2021-09-28T16:57:20Z</time>
      </trkpt>
      <trkpt lat="45.38854" lon="4.59894">
        <ele>1341</ele>
        <time>2021-09-28T16:58:37Z</time>
      </trkpt>
      <trkpt lat="45.39025" lon="4.60091">
        <ele>1353</ele>
        <time>2021-09-28T17:03:31Z</time>
      </trkpt>
      <trkpt lat="45.39051" lon="4.60145">
        <ele>1355</ele>
        <time>2021-09-28T17:04:32Z</time>
      </trkpt>
      <trkpt lat="45.39074" lon="4.60241">
        <ele>1358</ele>
        <time>2021-09-28T17:06:07Z</time>
      </trkpt>
      <trkpt lat="45.39022" lon="4.60482">
        <ele>1358</ele>
        <time>2021-09-28T17:10:03Z</time>
      </trkpt>
      <trkpt lat="45.39031" lon="4.60649">
        <ele>1336</ele>
        <time>2021-09-28T17:12:40Z</time>
      </trkpt>
      <trkpt lat="45.39114" lon="4.60806">
        <ele>1319</ele>
        <time>2021-09-28T17:15:44Z</time>
      </trkpt>
      <trkpt lat="45.39248" lon="4.61027">
        <ele>1349</ele>
        <time>2021-09-28T17:20:18Z</time>
      </trkpt>
      <trkpt lat="45.39263" lon="4.61093">
        <ele>1353</ele>
        <time>2021-09-28T17:21:23Z</time>
      </trkpt>
      <trkpt lat="45.39278" lon="4.61198">
        <ele>1346</ele>
        <time>2021-09-28T17:23:03Z</time>
      </trkpt>
      <trkpt lat="45.39318" lon="4.61271">
        <ele>1335</ele>
        <time>2021-09-28T17:24:30Z</time>
      </trkpt>
      <trkpt lat="45.39236" lon="4.61284">
        <ele>1336</ele>
        <time>2021-09-28T17:26:20Z</time>
      </trkpt>
      <trkpt lat="45.39238" lon="4.61327">
        <ele>1329</ele>
        <time>2021-09-28T17:27:01Z</time>
      </trkpt>
      <trkpt lat="45.39271" lon="4.61329">
        <ele>1330</ele>
        <time>2021-09-28T17:27:45Z</time>
      </trkpt>
      <trkpt lat="45.39306" lon="4.61379">
        <ele>1312</ele>
        <time>2021-09-28T17:28:51Z</time>
      </trkpt>
      <trkpt lat="45.39188" lon="4.61452">
        <ele>1286</ele>
        <time>2021-09-28T17:31:43Z</time>
      </trkpt>
      <trkpt lat="45.39098" lon="4.61464">
        <ele>1269</ele>
        <time>2021-09-28T17:33:43Z</time>
      </trkpt>
      <trkpt lat="45.39086" lon="4.61486">
        <ele>1262</ele>
        <time>2021-09-28T17:34:09Z</time>
      </trkpt>
      <trkpt lat="45.39046" lon="4.61443">
        <ele>1268</ele>
        <time>2021-09-28T17:35:16Z</time>
      </trkpt>
      <trkpt lat="45.38896" lon="4.6158">
        <ele>1235</ele>
        <time>2021-09-28T17:39:14Z</time>
      </trkpt>
    </trkseg>
  </trk>
</gpx>